sensor_id;sensor_type;location;lat;lon;timestamp;P1;durP1;ratioP1;P2;durP2;ratioP2
10687;SDS011;5392;42.688;23.298;2022-11-21T00:00:49;7.32;;;6.72;;
10687;SDS011;5392;42.688;23.298;2022-11-21T00:03:18;7.03;;;6.57;;
10687;SDS011;5392;42.688;23.298;2022-11-21T00:05:46;7.47;;;6.85;;
10687;SDS011;5392;42.688;23.298;2022-11-21T00:08:15;6.00;;;5.50;;
10687;SDS011;5392;42.688;23.298;2022-11-21T00:10:44;6.20;;;5.63;;
10687;SDS011;5392;42.688;23.298;2022-11-21T00:13:15;5.72;;;5.30;;
10687;SDS011;5392;42.688;23.298;2022-11-21T00:15:43;4.80;;;4.50;;
10687;SDS011;5392;42.688;23.298;2022-11-21T00:18:11;5.95;;;5.45;;
10687;SDS011;5392;42.688;23.298;2022-11-21T00:20:38;6.10;;;5.60;;
10687;SDS011;5392;42.688;23.298;2022-11-21T00:23:05;6.70;;;5.88;;
10687;SDS011;5392;42.688;23.298;2022-11-21T00:25:33;4.80;;;4.47;;
10687;SDS011;5392;42.688;23.298;2022-11-21T00:28:00;5.93;;;5.40;;
10687;SDS011;5392;42.688;23.298;2022-11-21T00:30:27;5.90;;;5.50;;
10687;SDS011;5392;42.688;23.298;2022-11-21T00:32:54;6.18;;;5.57;;
10687;SDS011;5392;42.688;23.298;2022-11-21T00:35:20;6.00;;;5.47;;
10687;SDS011;5392;42.688;23.298;2022-11-21T00:37:47;8.02;;;7.28;;
10687;SDS011;5392;42.688;23.298;2022-11-21T00:40:15;8.25;;;7.55;;
10687;SDS011;5392;42.688;23.298;2022-11-21T00:42:43;8.27;;;7.55;;
10687;SDS011;5392;42.688;23.298;2022-11-21T00:45:10;8.80;;;7.53;;
10687;SDS011;5392;42.688;23.298;2022-11-21T00:47:37;7.80;;;7.18;;
10687;SDS011;5392;42.688;23.298;2022-11-21T00:50:04;6.50;;;6.00;;
10687;SDS011;5392;42.688;23.298;2022-11-21T00:52:31;7.63;;;6.97;;
10687;SDS011;5392;42.688;23.298;2022-11-21T00:54:57;6.90;;;6.30;;
10687;SDS011;5392;42.688;23.298;2022-11-21T00:57:24;6.45;;;5.85;;
10687;SDS011;5392;42.688;23.298;2022-11-21T00:59:51;5.70;;;5.20;;
10687;SDS011;5392;42.688;23.298;2022-11-21T01:02:17;7.53;;;6.78;;
10687;SDS011;5392;42.688;23.298;2022-11-21T01:04:44;7.65;;;6.07;;
10687;SDS011;5392;42.688;23.298;2022-11-21T01:07:12;7.50;;;6.78;;
10687;SDS011;5392;42.688;23.298;2022-11-21T01:09:40;7.40;;;6.78;;
10687;SDS011;5392;42.688;23.298;2022-11-21T01:12:06;9.38;;;7.10;;
10687;SDS011;5392;42.688;23.298;2022-11-21T01:14:33;7.15;;;6.55;;
10687;SDS011;5392;42.688;23.298;2022-11-21T01:17:00;7.43;;;6.88;;
10687;SDS011;5392;42.688;23.298;2022-11-21T01:19:26;7.90;;;6.88;;
10687;SDS011;5392;42.688;23.298;2022-11-21T01:21:53;8.48;;;7.63;;
10687;SDS011;5392;42.688;23.298;2022-11-21T01:24:20;9.15;;;8.25;;
10687;SDS011;5392;42.688;23.298;2022-11-21T01:26:47;11.88;;;9.32;;
10687;SDS011;5392;42.688;23.298;2022-11-21T01:29:16;11.93;;;9.45;;
10687;SDS011;5392;42.688;23.298;2022-11-21T01:31:43;9.90;;;8.90;;
10687;SDS011;5392;42.688;23.298;2022-11-21T01:34:09;11.13;;;9.77;;
10687;SDS011;5392;42.688;23.298;2022-11-21T01:36:37;9.80;;;8.80;;
10687;SDS011;5392;42.688;23.298;2022-11-21T01:39:04;10.75;;;9.35;;
10687;SDS011;5392;42.688;23.298;2022-11-21T01:41:33;16.08;;;8.10;;
10687;SDS011;5392;42.688;23.298;2022-11-21T01:44:26;8.82;;;7.65;;
10687;SDS011;5392;42.688;23.298;2022-11-21T01:47:12;10.02;;;8.80;;
10687;SDS011;5392;42.688;23.298;2022-11-21T01:49:38;9.10;;;8.25;;
10687;SDS011;5392;42.688;23.298;2022-11-21T01:52:08;8.68;;;7.93;;
10687;SDS011;5392;42.688;23.298;2022-11-21T01:57:32;10.07;;;8.85;;
10687;SDS011;5392;42.688;23.298;2022-11-21T02:00:10;10.45;;;9.55;;
10687;SDS011;5392;42.688;23.298;2022-11-21T02:02:42;11.00;;;9.93;;
10687;SDS011;5392;42.688;23.298;2022-11-21T02:05:12;10.98;;;9.90;;
10687;SDS011;5392;42.688;23.298;2022-11-21T02:07:43;10.95;;;9.10;;
10687;SDS011;5392;42.688;23.298;2022-11-21T02:10:12;10.60;;;8.82;;
10687;SDS011;5392;42.688;23.298;2022-11-21T02:12:53;10.27;;;9.27;;
10687;SDS011;5392;42.688;23.298;2022-11-21T02:15:23;9.25;;;8.18;;
10687;SDS011;5392;42.688;23.298;2022-11-21T02:17:52;8.80;;;8.02;;
10687;SDS011;5392;42.688;23.298;2022-11-21T02:20:22;7.95;;;7.25;;
10687;SDS011;5392;42.688;23.298;2022-11-21T02:25:33;6.22;;;5.72;;
10687;SDS011;5392;42.688;23.298;2022-11-21T02:28:06;6.78;;;6.10;;
10687;SDS011;5392;42.688;23.298;2022-11-21T02:30:35;5.88;;;5.38;;
10687;SDS011;5392;42.688;23.298;2022-11-21T02:33:05;6.25;;;5.70;;
10687;SDS011;5392;42.688;23.298;2022-11-21T02:35:32;7.60;;;5.05;;
10687;SDS011;5392;42.688;23.298;2022-11-21T02:38:21;5.80;;;5.40;;
10687;SDS011;5392;42.688;23.298;2022-11-21T02:41:01;4.32;;;4.05;;
10687;SDS011;5392;42.688;23.298;2022-11-21T02:43:38;3.70;;;2.72;;
10687;SDS011;5392;42.688;23.298;2022-11-21T02:46:10;4.00;;;3.70;;
10687;SDS011;5392;42.688;23.298;2022-11-21T02:48:37;4.85;;;4.57;;
10687;SDS011;5392;42.688;23.298;2022-11-21T02:51:04;4.50;;;3.85;;
10687;SDS011;5392;42.688;23.298;2022-11-21T02:53:31;3.83;;;3.47;;
10687;SDS011;5392;42.688;23.298;2022-11-21T02:55:58;4.35;;;2.40;;
10687;SDS011;5392;42.688;23.298;2022-11-21T02:58:25;3.88;;;3.45;;
10687;SDS011;5392;42.688;23.298;2022-11-21T03:00:51;3.70;;;3.08;;
10687;SDS011;5392;42.688;23.298;2022-11-21T03:03:20;1.95;;;1.35;;
10687;SDS011;5392;42.688;23.298;2022-11-21T03:05:47;2.28;;;1.27;;
10687;SDS011;5392;42.688;23.298;2022-11-21T03:08:14;1.67;;;1.58;;
10687;SDS011;5392;42.688;23.298;2022-11-21T03:10:41;1.13;;;0.80;;
10687;SDS011;5392;42.688;23.298;2022-11-21T03:13:08;2.35;;;0.70;;
10687;SDS011;5392;42.688;23.298;2022-11-21T03:15:34;2.55;;;0.57;;
10687;SDS011;5392;42.688;23.298;2022-11-21T03:18:01;1.08;;;0.40;;
10687;SDS011;5392;42.688;23.298;2022-11-21T03:20:29;2.63;;;0.50;;
10687;SDS011;5392;42.688;23.298;2022-11-21T03:22:57;0.93;;;0.30;;
10687;SDS011;5392;42.688;23.298;2022-11-21T03:25:23;2.67;;;0.43;;
10687;SDS011;5392;42.688;23.298;2022-11-21T03:27:50;1.08;;;0.57;;
10687;SDS011;5392;42.688;23.298;2022-11-21T03:30:22;2.15;;;0.47;;
10687;SDS011;5392;42.688;23.298;2022-11-21T03:32:50;1.67;;;0.50;;
10687;SDS011;5392;42.688;23.298;2022-11-21T03:35:20;0.52;;;0.40;;
10687;SDS011;5392;42.688;23.298;2022-11-21T03:37:47;1.65;;;0.40;;
10687;SDS011;5392;42.688;23.298;2022-11-21T03:40:14;0.75;;;0.50;;
10687;SDS011;5392;42.688;23.298;2022-11-21T03:42:40;2.47;;;0.45;;
10687;SDS011;5392;42.688;23.298;2022-11-21T03:45:07;0.90;;;0.45;;
10687;SDS011;5392;42.688;23.298;2022-11-21T03:47:35;2.15;;;0.40;;
10687;SDS011;5392;42.688;23.298;2022-11-21T03:50:02;0.93;;;0.40;;
10687;SDS011;5392;42.688;23.298;2022-11-21T03:52:28;1.00;;;0.50;;
10687;SDS011;5392;42.688;23.298;2022-11-21T03:54:55;1.48;;;0.50;;
10687;SDS011;5392;42.688;23.298;2022-11-21T03:57:22;0.80;;;0.40;;
10687;SDS011;5392;42.688;23.298;2022-11-21T03:59:49;2.47;;;0.50;;
10687;SDS011;5392;42.688;23.298;2022-11-21T04:02:15;2.28;;;0.40;;
10687;SDS011;5392;42.688;23.298;2022-11-21T04:04:42;1.25;;;0.40;;
10687;SDS011;5392;42.688;23.298;2022-11-21T04:07:08;5.80;;;0.60;;
10687;SDS011;5392;42.688;23.298;2022-11-21T04:09:35;1.05;;;0.60;;
10687;SDS011;5392;42.688;23.298;2022-11-21T04:12:02;1.42;;;0.63;;
10687;SDS011;5392;42.688;23.298;2022-11-21T04:14:33;4.03;;;0.60;;
10687;SDS011;5392;42.688;23.298;2022-11-21T04:17:00;1.77;;;0.60;;
10687;SDS011;5392;42.688;23.298;2022-11-21T04:19:27;2.72;;;0.43;;
10687;SDS011;5392;42.688;23.298;2022-11-21T04:21:53;1.10;;;0.50;;
10687;SDS011;5392;42.688;23.298;2022-11-21T04:24:20;2.92;;;0.50;;
10687;SDS011;5392;42.688;23.298;2022-11-21T04:26:47;2.53;;;0.50;;
10687;SDS011;5392;42.688;23.298;2022-11-21T04:29:14;1.05;;;0.40;;
10687;SDS011;5392;42.688;23.298;2022-11-21T04:31:40;2.15;;;0.40;;
10687;SDS011;5392;42.688;23.298;2022-11-21T04:34:07;2.60;;;0.47;;
10687;SDS011;5392;42.688;23.298;2022-11-21T04:36:34;0.93;;;0.40;;
10687;SDS011;5392;42.688;23.298;2022-11-21T04:39:00;2.30;;;0.47;;
10687;SDS011;5392;42.688;23.298;2022-11-21T04:41:27;1.05;;;0.30;;
10687;SDS011;5392;42.688;23.298;2022-11-21T04:43:54;2.33;;;0.40;;
10687;SDS011;5392;42.688;23.298;2022-11-21T04:46:21;1.55;;;0.40;;
10687;SDS011;5392;42.688;23.298;2022-11-21T04:48:48;4.32;;;0.50;;
10687;SDS011;5392;42.688;23.298;2022-11-21T04:51:14;1.73;;;0.30;;
10687;SDS011;5392;42.688;23.298;2022-11-21T04:53:41;2.30;;;0.20;;
10687;SDS011;5392;42.688;23.298;2022-11-21T04:56:08;0.80;;;0.20;;
10687;SDS011;5392;42.688;23.298;2022-11-21T04:58:35;0.20;;;0.20;;
10687;SDS011;5392;42.688;23.298;2022-11-21T05:01:05;1.58;;;0.30;;
10687;SDS011;5392;42.688;23.298;2022-11-21T05:03:33;0.30;;;0.20;;
10687;SDS011;5392;42.688;23.298;2022-11-21T05:06:01;1.30;;;0.20;;
10687;SDS011;5392;42.688;23.298;2022-11-21T05:08:27;0.47;;;0.13;;
10687;SDS011;5392;42.688;23.298;2022-11-21T05:10:54;0.10;;;0.10;;
10687;SDS011;5392;42.688;23.298;2022-11-21T05:13:39;0.55;;;0.10;;
10687;SDS011;5392;42.688;23.298;2022-11-21T05:16:06;0.68;;;0.10;;
10687;SDS011;5392;42.688;23.298;2022-11-21T05:18:32;0.20;;;0.15;;
10687;SDS011;5392;42.688;23.298;2022-11-21T05:21:00;0.10;;;0.10;;
10687;SDS011;5392;42.688;23.298;2022-11-21T05:23:27;1.25;;;0.10;;
10687;SDS011;5392;42.688;23.298;2022-11-21T05:25:54;0.45;;;0.20;;
10687;SDS011;5392;42.688;23.298;2022-11-21T05:28:21;0.50;;;0.15;;
10687;SDS011;5392;42.688;23.298;2022-11-21T05:30:48;0.47;;;0.10;;
10687;SDS011;5392;42.688;23.298;2022-11-21T05:33:15;0.80;;;0.10;;
10687;SDS011;5392;42.688;23.298;2022-11-21T05:35:41;0.10;;;0.10;;
10687;SDS011;5392;42.688;23.298;2022-11-21T05:38:09;0.15;;;0.10;;
10687;SDS011;5392;42.688;23.298;2022-11-21T05:40:36;0.10;;;0.10;;
10687;SDS011;5392;42.688;23.298;2022-11-21T05:43:03;0.98;;;0.10;;
10687;SDS011;5392;42.688;23.298;2022-11-21T05:45:51;0.20;;;0.20;;
10687;SDS011;5392;42.688;23.298;2022-11-21T05:48:18;1.42;;;0.10;;
10687;SDS011;5392;42.688;23.298;2022-11-21T05:50:48;0.52;;;0.10;;
10687;SDS011;5392;42.688;23.298;2022-11-21T05:53:15;0.35;;;0.05;;
10687;SDS011;5392;42.688;23.298;2022-11-21T05:55:42;0.20;;;0.20;;
10687;SDS011;5392;42.688;23.298;2022-11-21T05:58:09;0.40;;;0.20;;
10687;SDS011;5392;42.688;23.298;2022-11-21T06:00:36;0.10;;;0.10;;
10687;SDS011;5392;42.688;23.298;2022-11-21T06:03:04;0.10;;;0.10;;
10687;SDS011;5392;42.688;23.298;2022-11-21T06:05:50;0.17;;;0.10;;
10687;SDS011;5392;42.688;23.298;2022-11-21T06:08:17;0.00;;;0.00;;
10687;SDS011;5392;42.688;23.298;2022-11-21T06:10:44;0.10;;;0.10;;
10687;SDS011;5392;42.688;23.298;2022-11-21T06:13:10;0.38;;;0.20;;
10687;SDS011;5392;42.688;23.298;2022-11-21T06:15:54;0.10;;;0.10;;
10687;SDS011;5392;42.688;23.298;2022-11-21T06:18:25;0.10;;;0.10;;
10687;SDS011;5392;42.688;23.298;2022-11-21T06:20:53;2.08;;;0.10;;
10687;SDS011;5392;42.688;23.298;2022-11-21T06:23:25;1.08;;;0.10;;
10687;SDS011;5392;42.688;23.298;2022-11-21T06:25:58;0.03;;;0.03;;
10687;SDS011;5392;42.688;23.298;2022-11-21T06:28:29;0.68;;;0.20;;
10687;SDS011;5392;42.688;23.298;2022-11-21T06:31:00;0.03;;;0.03;;
10687;SDS011;5392;42.688;23.298;2022-11-21T06:33:28;2.10;;;1.95;;
10687;SDS011;5392;42.688;23.298;2022-11-21T06:35:55;0.10;;;0.10;;
10687;SDS011;5392;42.688;23.298;2022-11-21T06:38:22;0.60;;;0.05;;
10687;SDS011;5392;42.688;23.298;2022-11-21T06:40:48;0.55;;;0.10;;
10687;SDS011;5392;42.688;23.298;2022-11-21T06:43:15;0.00;;;0.00;;
10687;SDS011;5392;42.688;23.298;2022-11-21T06:45:42;0.10;;;0.10;;
10687;SDS011;5392;42.688;23.298;2022-11-21T06:48:08;0.10;;;0.10;;
10687;SDS011;5392;42.688;23.298;2022-11-21T06:50:35;0.20;;;0.20;;
10687;SDS011;5392;42.688;23.298;2022-11-21T06:53:04;0.10;;;0.10;;
10687;SDS011;5392;42.688;23.298;2022-11-21T06:55:31;0.10;;;0.10;;
10687;SDS011;5392;42.688;23.298;2022-11-21T06:57:58;0.10;;;0.10;;
10687;SDS011;5392;42.688;23.298;2022-11-21T07:00:25;0.30;;;0.10;;
10687;SDS011;5392;42.688;23.298;2022-11-21T07:02:53;0.10;;;0.00;;
10687;SDS011;5392;42.688;23.298;2022-11-21T07:05:27;0.00;;;0.00;;
10687;SDS011;5392;42.688;23.298;2022-11-21T07:07:58;0.20;;;0.00;;
10687;SDS011;5392;42.688;23.298;2022-11-21T07:10:25;0.00;;;0.00;;
10687;SDS011;5392;42.688;23.298;2022-11-21T07:12:56;0.30;;;0.10;;
10687;SDS011;5392;42.688;23.298;2022-11-21T07:15:42;0.73;;;0.20;;
10687;SDS011;5392;42.688;23.298;2022-11-21T07:18:09;0.52;;;0.10;;
10687;SDS011;5392;42.688;23.298;2022-11-21T07:20:37;0.57;;;0.20;;
10687;SDS011;5392;42.688;23.298;2022-11-21T07:23:04;0.20;;;0.20;;
10687;SDS011;5392;42.688;23.298;2022-11-21T07:25:32;1.13;;;0.30;;
10687;SDS011;5392;42.688;23.298;2022-11-21T07:28:02;0.68;;;0.20;;
10687;SDS011;5392;42.688;23.298;2022-11-21T07:30:29;1.00;;;0.20;;
10687;SDS011;5392;42.688;23.298;2022-11-21T07:32:56;0.20;;;0.20;;
10687;SDS011;5392;42.688;23.298;2022-11-21T07:35:23;0.40;;;0.40;;
10687;SDS011;5392;42.688;23.298;2022-11-21T07:37:51;0.30;;;0.30;;
10687;SDS011;5392;42.688;23.298;2022-11-21T07:40:18;0.88;;;0.20;;
10687;SDS011;5392;42.688;23.298;2022-11-21T07:42:45;0.77;;;0.20;;
10687;SDS011;5392;42.688;23.298;2022-11-21T07:45:13;0.30;;;0.30;;
10687;SDS011;5392;42.688;23.298;2022-11-21T07:47:41;0.20;;;0.20;;
10687;SDS011;5392;42.688;23.298;2022-11-21T07:50:08;0.20;;;0.20;;
10687;SDS011;5392;42.688;23.298;2022-11-21T07:52:37;0.20;;;0.20;;
10687;SDS011;5392;42.688;23.298;2022-11-21T07:55:04;0.20;;;0.20;;
10687;SDS011;5392;42.688;23.298;2022-11-21T07:57:31;0.20;;;0.20;;
10687;SDS011;5392;42.688;23.298;2022-11-21T07:59:58;0.10;;;0.10;;
10687;SDS011;5392;42.688;23.298;2022-11-21T08:02:25;0.17;;;0.10;;
10687;SDS011;5392;42.688;23.298;2022-11-21T08:04:53;0.10;;;0.10;;
10687;SDS011;5392;42.688;23.298;2022-11-21T08:07:21;3.20;;;0.10;;
10687;SDS011;5392;42.688;23.298;2022-11-21T08:09:49;0.10;;;0.10;;
10687;SDS011;5392;42.688;23.298;2022-11-21T08:12:15;0.28;;;0.10;;
10687;SDS011;5392;42.688;23.298;2022-11-21T08:14:42;0.20;;;0.20;;
10687;SDS011;5392;42.688;23.298;2022-11-21T08:17:09;0.80;;;0.15;;
10687;SDS011;5392;42.688;23.298;2022-11-21T08:19:35;0.70;;;0.30;;
10687;SDS011;5392;42.688;23.298;2022-11-21T08:22:02;0.10;;;0.10;;
10687;SDS011;5392;42.688;23.298;2022-11-21T08:24:28;0.10;;;0.10;;
10687;SDS011;5392;42.688;23.298;2022-11-21T08:26:55;0.17;;;0.17;;
10687;SDS011;5392;42.688;23.298;2022-11-21T08:29:24;0.00;;;0.00;;
10687;SDS011;5392;42.688;23.298;2022-11-21T08:31:52;0.10;;;0.10;;
10687;SDS011;5392;42.688;23.298;2022-11-21T08:34:19;0.10;;;0.10;;
10687;SDS011;5392;42.688;23.298;2022-11-21T08:36:45;0.30;;;0.20;;
10687;SDS011;5392;42.688;23.298;2022-11-21T08:39:12;0.00;;;0.00;;
10687;SDS011;5392;42.688;23.298;2022-11-21T08:41:39;0.10;;;0.00;;
10687;SDS011;5392;42.688;23.298;2022-11-21T08:44:24;0.30;;;0.30;;
10687;SDS011;5392;42.688;23.298;2022-11-21T08:46:51;0.10;;;0.10;;
10687;SDS011;5392;42.688;23.298;2022-11-21T08:49:18;1.05;;;0.10;;
10687;SDS011;5392;42.688;23.298;2022-11-21T08:51:45;0.80;;;0.20;;
10687;SDS011;5392;42.688;23.298;2022-11-21T08:54:17;0.10;;;0.00;;
10687;SDS011;5392;42.688;23.298;2022-11-21T08:56:45;0.10;;;0.10;;
10687;SDS011;5392;42.688;23.298;2022-11-21T08:59:12;0.20;;;0.10;;
10687;SDS011;5392;42.688;23.298;2022-11-21T09:01:38;0.22;;;0.10;;
10687;SDS011;5392;42.688;23.298;2022-11-21T09:04:05;0.20;;;0.20;;
10687;SDS011;5392;42.688;23.298;2022-11-21T09:06:32;0.10;;;0.10;;
10687;SDS011;5392;42.688;23.298;2022-11-21T09:09:00;0.10;;;0.10;;
10687;SDS011;5392;42.688;23.298;2022-11-21T09:11:27;0.40;;;0.10;;
10687;SDS011;5392;42.688;23.298;2022-11-21T09:13:53;0.00;;;0.00;;
10687;SDS011;5392;42.688;23.298;2022-11-21T09:16:52;0.10;;;0.10;;
10687;SDS011;5392;42.688;23.298;2022-11-21T09:19:37;0.10;;;0.10;;
10687;SDS011;5392;42.688;23.298;2022-11-21T09:22:04;0.75;;;0.10;;
10687;SDS011;5392;42.688;23.298;2022-11-21T09:24:31;0.10;;;0.10;;
10687;SDS011;5392;42.688;23.298;2022-11-21T09:26:58;0.20;;;0.20;;
10687;SDS011;5392;42.688;23.298;2022-11-21T09:29:24;0.20;;;0.20;;
10687;SDS011;5392;42.688;23.298;2022-11-21T09:31:51;0.80;;;0.20;;
10687;SDS011;5392;42.688;23.298;2022-11-21T09:34:18;0.20;;;0.20;;
10687;SDS011;5392;42.688;23.298;2022-11-21T09:36:45;0.10;;;0.10;;
10687;SDS011;5392;42.688;23.298;2022-11-21T09:39:12;1.75;;;0.20;;
10687;SDS011;5392;42.688;23.298;2022-11-21T09:49:59;1.48;;;0.20;;
10687;SDS011;5392;42.688;23.298;2022-11-21T09:52:30;0.52;;;0.20;;
10687;SDS011;5392;42.688;23.298;2022-11-21T09:55:16;0.20;;;0.20;;
10687;SDS011;5392;42.688;23.298;2022-11-21T09:57:46;1.33;;;1.33;;
10687;SDS011;5392;42.688;23.298;2022-11-21T10:00:18;1.17;;;0.40;;
10687;SDS011;5392;42.688;23.298;2022-11-21T10:02:46;5.38;;;0.20;;
10687;SDS011;5392;42.688;23.298;2022-11-21T10:05:13;0.28;;;0.28;;
10687;SDS011;5392;42.688;23.298;2022-11-21T10:07:40;0.30;;;0.30;;
10687;SDS011;5392;42.688;23.298;2022-11-21T10:10:15;1.00;;;0.30;;
10687;SDS011;5392;42.688;23.298;2022-11-21T10:13:05;2.92;;;0.40;;
10687;SDS011;5392;42.688;23.298;2022-11-21T10:16:02;0.30;;;0.30;;
10687;SDS011;5392;42.688;23.298;2022-11-21T10:31:58;1.90;;;1.20;;
10687;SDS011;5392;42.688;23.298;2022-11-21T10:34:30;0.50;;;0.50;;
10687;SDS011;5392;42.688;23.298;2022-11-21T10:37:36;0.60;;;0.60;;
10687;SDS011;5392;42.688;23.298;2022-11-21T10:40:15;1.25;;;0.98;;
10687;SDS011;5392;42.688;23.298;2022-11-21T10:43:16;0.60;;;0.60;;
10687;SDS011;5392;42.688;23.298;2022-11-21T10:46:15;0.50;;;0.50;;
10687;SDS011;5392;42.688;23.298;2022-11-21T10:48:45;0.70;;;0.70;;
10687;SDS011;5392;42.688;23.298;2022-11-21T10:51:24;0.60;;;0.50;;
10687;SDS011;5392;42.688;23.298;2022-11-21T10:54:03;1.02;;;0.70;;
10687;SDS011;5392;42.688;23.298;2022-11-21T10:56:50;0.70;;;0.70;;
10687;SDS011;5392;42.688;23.298;2022-11-21T10:59:21;0.85;;;0.85;;
10687;SDS011;5392;42.688;23.298;2022-11-21T11:02:00;0.65;;;0.50;;
10687;SDS011;5392;42.688;23.298;2022-11-21T11:04:47;0.40;;;0.40;;
10687;SDS011;5392;42.688;23.298;2022-11-21T11:07:19;1.35;;;0.40;;
10687;SDS011;5392;42.688;23.298;2022-11-21T11:09:51;0.40;;;0.40;;
10687;SDS011;5392;42.688;23.298;2022-11-21T11:12:21;0.63;;;0.40;;
10687;SDS011;5392;42.688;23.298;2022-11-21T11:15:22;0.40;;;0.30;;
10687;SDS011;5392;42.688;23.298;2022-11-21T11:17:51;0.50;;;0.50;;
10687;SDS011;5392;42.688;23.298;2022-11-21T11:20:36;0.70;;;0.50;;
10687;SDS011;5392;42.688;23.298;2022-11-21T11:26:00;0.50;;;0.50;;
10687;SDS011;5392;42.688;23.298;2022-11-21T11:28:32;1.23;;;0.50;;
10687;SDS011;5392;42.688;23.298;2022-11-21T11:31:01;10.00;;;5.38;;
10687;SDS011;5392;42.688;23.298;2022-11-21T11:33:29;0.50;;;0.50;;
10687;SDS011;5392;42.688;23.298;2022-11-21T11:38:51;1.00;;;0.60;;
10687;SDS011;5392;42.688;23.298;2022-11-21T11:41:59;0.80;;;0.80;;
10687;SDS011;5392;42.688;23.298;2022-11-21T11:44:53;0.50;;;0.40;;
10687;SDS011;5392;42.688;23.298;2022-11-21T11:48:06;1.70;;;0.80;;
10687;SDS011;5392;42.688;23.298;2022-11-21T11:53:10;0.40;;;0.40;;
10687;SDS011;5392;42.688;23.298;2022-11-21T11:55:46;0.40;;;0.40;;
10687;SDS011;5392;42.688;23.298;2022-11-21T12:03:41;0.40;;;0.40;;
10687;SDS011;5392;42.688;23.298;2022-11-21T12:06:33;0.40;;;0.40;;
10687;SDS011;5392;42.688;23.298;2022-11-21T12:12:10;1.02;;;0.40;;
10687;SDS011;5392;42.688;23.298;2022-11-21T12:23:19;1.17;;;0.40;;
10687;SDS011;5392;42.688;23.298;2022-11-21T12:28:51;1.40;;;0.60;;
10687;SDS011;5392;42.688;23.298;2022-11-21T12:34:16;0.50;;;0.28;;
10687;SDS011;5392;42.688;23.298;2022-11-21T12:43:02;2.28;;;0.50;;
10687;SDS011;5392;42.688;23.298;2022-11-21T12:48:56;0.40;;;0.40;;
10687;SDS011;5392;42.688;23.298;2022-11-21T12:57:45;0.50;;;0.50;;
10687;SDS011;5392;42.688;23.298;2022-11-21T13:05:46;0.40;;;0.40;;
10687;SDS011;5392;42.688;23.298;2022-11-21T13:08:18;1.08;;;0.50;;
10687;SDS011;5392;42.688;23.298;2022-11-21T13:13:54;0.75;;;0.60;;
10687;SDS011;5392;42.688;23.298;2022-11-21T13:16:27;2.33;;;1.60;;
10687;SDS011;5392;42.688;23.298;2022-11-21T13:19:03;2.38;;;1.65;;
10687;SDS011;5392;42.688;23.298;2022-11-21T13:21:47;3.90;;;0.90;;
10687;SDS011;5392;42.688;23.298;2022-11-21T13:24:59;1.40;;;1.40;;
10687;SDS011;5392;42.688;23.298;2022-11-21T13:46:00;1.17;;;1.17;;
10687;SDS011;5392;42.688;23.298;2022-11-21T13:56:26;2.30;;;2.20;;
10687;SDS011;5392;42.688;23.298;2022-11-21T14:07:32;1.10;;;1.10;;
10687;SDS011;5392;42.688;23.298;2022-11-21T14:10:06;2.50;;;2.30;;
10687;SDS011;5392;42.688;23.298;2022-11-21T14:12:54;0.98;;;0.95;;
10687;SDS011;5392;42.688;23.298;2022-11-21T14:15:34;1.00;;;1.00;;
10687;SDS011;5392;42.688;23.298;2022-11-21T14:18:22;1.05;;;0.95;;
10687;SDS011;5392;42.688;23.298;2022-11-21T14:20:53;3.60;;;1.83;;
10687;SDS011;5392;42.688;23.298;2022-11-21T14:23:24;4.28;;;3.97;;
10687;SDS011;5392;42.688;23.298;2022-11-21T14:25:54;1.98;;;1.58;;
10687;SDS011;5392;42.688;23.298;2022-11-21T14:28:32;1.48;;;1.38;;
10687;SDS011;5392;42.688;23.298;2022-11-21T14:31:01;0.90;;;0.90;;
10687;SDS011;5392;42.688;23.298;2022-11-21T14:33:30;1.75;;;1.73;;
10687;SDS011;5392;42.688;23.298;2022-11-21T14:38:53;0.80;;;0.70;;
10687;SDS011;5392;42.688;23.298;2022-11-21T14:41:43;0.80;;;0.80;;
10687;SDS011;5392;42.688;23.298;2022-11-21T14:44:16;1.00;;;1.00;;
10687;SDS011;5392;42.688;23.298;2022-11-21T14:46:44;3.35;;;3.15;;
10687;SDS011;5392;42.688;23.298;2022-11-21T14:51:46;2.83;;;2.58;;
10687;SDS011;5392;42.688;23.298;2022-11-21T14:54:37;1.38;;;1.38;;
10687;SDS011;5392;42.688;23.298;2022-11-21T14:57:32;1.08;;;1.08;;
10687;SDS011;5392;42.688;23.298;2022-11-21T15:00:04;2.60;;;2.40;;
10687;SDS011;5392;42.688;23.298;2022-11-21T15:02:32;2.88;;;2.28;;
10687;SDS011;5392;42.688;23.298;2022-11-21T15:05:01;1.60;;;1.60;;
10687;SDS011;5392;42.688;23.298;2022-11-21T15:07:34;4.50;;;4.15;;
10687;SDS011;5392;42.688;23.298;2022-11-21T15:10:16;3.50;;;3.20;;
10687;SDS011;5392;42.688;23.298;2022-11-21T15:13:06;8.57;;;7.82;;
10687;SDS011;5392;42.688;23.298;2022-11-21T15:15:40;1.40;;;1.40;;
10687;SDS011;5392;42.688;23.298;2022-11-21T15:18:27;1.50;;;1.50;;
10687;SDS011;5392;42.688;23.298;2022-11-21T15:20:56;2.45;;;2.28;;
10687;SDS011;5392;42.688;23.298;2022-11-21T15:23:30;3.13;;;2.63;;
10687;SDS011;5392;42.688;23.298;2022-11-21T15:25:58;1.70;;;1.63;;
10687;SDS011;5392;42.688;23.298;2022-11-21T15:28:27;1.50;;;1.40;;
10687;SDS011;5392;42.688;23.298;2022-11-21T15:33:55;2.05;;;0.68;;
10687;SDS011;5392;42.688;23.298;2022-11-21T15:36:59;0.60;;;0.60;;
10687;SDS011;5392;42.688;23.298;2022-11-21T15:39:47;0.90;;;0.90;;
10687;SDS011;5392;42.688;23.298;2022-11-21T15:47:59;3.25;;;3.05;;
10687;SDS011;5392;42.688;23.298;2022-11-21T15:50:26;3.10;;;2.90;;
10687;SDS011;5392;42.688;23.298;2022-11-21T15:52:52;2.22;;;1.90;;
10687;SDS011;5392;42.688;23.298;2022-11-21T15:55:26;1.77;;;1.67;;
10687;SDS011;5392;42.688;23.298;2022-11-21T15:57:56;1.77;;;1.67;;
10687;SDS011;5392;42.688;23.298;2022-11-21T16:00:23;14.77;;;5.53;;
10687;SDS011;5392;42.688;23.298;2022-11-21T16:02:50;109.00;;;27.77;;
10687;SDS011;5392;42.688;23.298;2022-11-21T16:05:17;2.08;;;1.98;;
10687;SDS011;5392;42.688;23.298;2022-11-21T16:07:43;5.78;;;5.25;;
10687;SDS011;5392;42.688;23.298;2022-11-21T16:10:10;5.95;;;5.65;;
10687;SDS011;5392;42.688;23.298;2022-11-21T16:12:49;2.20;;;2.10;;
10687;SDS011;5392;42.688;23.298;2022-11-21T16:15:16;3.15;;;2.88;;
10687;SDS011;5392;42.688;23.298;2022-11-21T16:17:42;2.50;;;2.40;;
10687;SDS011;5392;42.688;23.298;2022-11-21T16:20:12;5.38;;;4.97;;
10687;SDS011;5392;42.688;23.298;2022-11-21T16:22:39;8.85;;;8.02;;
10687;SDS011;5392;42.688;23.298;2022-11-21T16:25:12;11.77;;;10.73;;
10687;SDS011;5392;42.688;23.298;2022-11-21T16:27:38;9.80;;;9.00;;
10687;SDS011;5392;42.688;23.298;2022-11-21T16:30:05;9.38;;;8.52;;
10687;SDS011;5392;42.688;23.298;2022-11-21T16:32:32;6.80;;;6.30;;
10687;SDS011;5392;42.688;23.298;2022-11-21T16:34:59;4.82;;;4.38;;
10687;SDS011;5392;42.688;23.298;2022-11-21T16:37:26;5.03;;;4.70;;
10687;SDS011;5392;42.688;23.298;2022-11-21T16:39:52;4.65;;;4.25;;
10687;SDS011;5392;42.688;23.298;2022-11-21T16:42:19;5.80;;;5.30;;
10687;SDS011;5392;42.688;23.298;2022-11-21T16:44:46;4.47;;;4.07;;
10687;SDS011;5392;42.688;23.298;2022-11-21T16:47:13;3.53;;;3.33;;
10687;SDS011;5392;42.688;23.298;2022-11-21T16:49:40;3.08;;;2.90;;
10687;SDS011;5392;42.688;23.298;2022-11-21T16:52:13;1.90;;;1.80;;
10687;SDS011;5392;42.688;23.298;2022-11-21T16:54:41;2.15;;;2.05;;
10687;SDS011;5392;42.688;23.298;2022-11-21T16:57:07;3.33;;;2.72;;
10687;SDS011;5392;42.688;23.298;2022-11-21T16:59:35;3.25;;;3.13;;
10687;SDS011;5392;42.688;23.298;2022-11-21T17:02:01;3.50;;;3.20;;
10687;SDS011;5392;42.688;23.298;2022-11-21T17:04:29;4.80;;;4.38;;
10687;SDS011;5392;42.688;23.298;2022-11-21T17:06:59;7.55;;;6.70;;
10687;SDS011;5392;42.688;23.298;2022-11-21T17:09:26;9.48;;;7.55;;
10687;SDS011;5392;42.688;23.298;2022-11-21T17:11:55;9.45;;;8.55;;
10687;SDS011;5392;42.688;23.298;2022-11-21T17:14:22;17.88;;;11.63;;
10687;SDS011;5392;42.688;23.298;2022-11-21T17:16:49;6.97;;;6.38;;
10687;SDS011;5392;42.688;23.298;2022-11-21T17:19:16;16.75;;;9.32;;
10687;SDS011;5392;42.688;23.298;2022-11-21T17:21:42;30.98;;;13.63;;